createdAt,value
2022-08-08T00:00:49.959Z,1012.82
2022-08-08T00:00:51.342Z,1012.83
2022-08-08T00:01:12.597Z,1012.83
2022-08-08T00:02:31.710Z,1012.84
2022-08-08T00:03:31.900Z,1012.87
2022-08-08T00:04:18.628Z,1012.86
2022-08-08T00:05:18.262Z,1012.85
2022-08-08T00:06:11.437Z,1012.88
2022-08-08T00:07:14.240Z,1012.89
2022-08-08T00:08:18.282Z,1012.85
2022-08-08T00:09:17.389Z,1012.9
2022-08-08T00:10:14.323Z,1012.88
2022-08-08T00:11:15.248Z,1012.88
2022-08-08T00:12:14.400Z,1012.89
2022-08-08T00:13:20.689Z,1012.88
2022-08-08T00:14:47.868Z,1012.85
2022-08-08T00:15:24.098Z,1012.83
2022-08-08T00:16:12.218Z,1012.84
2022-08-08T00:17:22.634Z,1012.85
2022-08-08T00:18:11.152Z,1012.86
2022-08-08T00:19:11.249Z,1012.87
2022-08-08T00:20:20.522Z,1012.87
2022-08-08T00:21:17.288Z,1012.89
2022-08-08T00:22:14.151Z,1012.9
2022-08-08T00:23:11.158Z,1012.87
2022-08-08T00:24:14.179Z,1012.86
2022-08-08T00:25:12.159Z,1012.89
2022-08-08T00:26:21.786Z,1012.84
2022-08-08T00:27:11.145Z,1012.86
2022-08-08T00:28:34.719Z,1012.8
2022-08-08T00:29:12.153Z,1012.82
2022-08-08T00:30:18.385Z,1012.81
2022-08-08T00:32:16.042Z,1012.8
2022-08-08T00:32:34.185Z,1012.82
2022-08-08T00:33:18.250Z,1012.81
2022-08-08T00:34:20.363Z,1012.82
2022-08-08T00:35:18.910Z,1012.85
2022-08-08T00:36:25.534Z,1012.8
2022-08-08T00:37:45.450Z,1012.82
2022-08-08T00:38:31.722Z,1012.85
2022-08-08T00:39:36.288Z,1012.84
2022-08-08T00:41:08.291Z,1012.79
2022-08-08T00:41:17.234Z,1012.82
2022-08-08T00:42:30.316Z,1012.77
2022-08-08T00:43:20.390Z,1012.76
2022-08-08T00:44:12.157Z,1012.82
2022-08-08T00:45:21.213Z,1012.79
2022-08-08T00:46:20.177Z,1012.8
2022-08-08T00:47:23.392Z,1012.77
2022-08-08T00:48:29.157Z,1012.77
2022-08-08T00:49:22.323Z,1012.8
2022-08-08T00:50:12.188Z,1012.79
2022-08-08T00:51:18.223Z,1012.78
2022-08-08T00:52:20.500Z,1012.82
2022-08-08T00:53:17.260Z,1012.79
2022-08-08T00:54:18.535Z,1012.8
2022-08-08T00:55:11.520Z,1012.78
2022-08-08T00:56:17.689Z,1012.8
2022-08-08T00:57:19.794Z,1012.77
2022-08-08T00:58:17.314Z,1012.78
2022-08-08T00:59:13.577Z,1012.76
2022-08-08T01:00:11.879Z,1012.78
2022-08-08T01:01:11.168Z,1012.79
2022-08-08T01:03:53.887Z,1012.78
2022-08-08T01:03:57.834Z,1012.78
2022-08-08T01:04:17.334Z,1012.83
2022-08-08T01:05:29.023Z,1012.81
2022-08-08T01:06:16.628Z,1012.82
2022-08-08T01:07:13.913Z,1012.82
2022-08-08T01:08:12.251Z,1012.85
2022-08-08T01:09:34.739Z,1012.86
2022-08-08T01:10:11.156Z,1012.84
2022-08-08T01:11:11.211Z,1012.83
2022-08-08T01:12:11.150Z,1012.82
2022-08-08T01:13:15.742Z,1012.85
2022-08-08T01:14:16.968Z,1012.83
2022-08-08T01:15:17.181Z,1012.84
2022-08-08T01:16:17.684Z,1012.86
2022-08-08T01:17:14.164Z,1012.86
2022-08-08T01:18:25.632Z,1012.87
2022-08-08T01:19:25.535Z,1012.85
2022-08-08T01:20:16.000Z,1012.84
2022-08-08T01:21:14.260Z,1012.85
2022-08-08T01:22:23.283Z,1012.87
2022-08-08T01:24:03.529Z,1012.83
2022-08-08T01:24:18.073Z,1012.87
2022-08-08T01:25:17.512Z,1012.9
2022-08-08T01:26:15.258Z,1012.94
2022-08-08T01:27:21.487Z,1012.96
2022-08-08T01:28:17.976Z,1012.94
2022-08-08T01:29:12.638Z,1012.94
2022-08-08T01:30:11.965Z,1012.95
2022-08-08T01:32:02.807Z,1012.97
2022-08-08T01:32:21.132Z,1012.94
2022-08-08T01:33:24.154Z,1012.94
2022-08-08T01:34:20.208Z,1012.95
2022-08-08T01:35:12.821Z,1012.93
2022-08-08T01:36:15.476Z,1012.98
2022-08-08T01:37:17.813Z,1012.95
2022-08-08T01:38:11.555Z,1012.94
2022-08-08T01:39:20.168Z,1012.96
2022-08-08T01:40:20.746Z,1012.99
2022-08-08T01:41:16.956Z,1013
2022-08-08T01:42:15.008Z,1013.02
2022-08-08T01:43:11.787Z,1013.02
2022-08-08T01:44:12.114Z,1013.01
2022-08-08T01:45:15.662Z,1013.03
2022-08-08T01:46:12.711Z,1013
2022-08-08T01:48:15.230Z,1012.98
2022-08-08T01:48:27.602Z,1012.97
2022-08-08T01:49:23.149Z,1012.96
2022-08-08T01:50:12.494Z,1012.94
2022-08-08T01:51:29.928Z,1012.94
2022-08-08T01:52:29.301Z,1012.9
2022-08-08T01:55:18.242Z,1012.91
2022-08-08T01:55:18.360Z,1012.91
2022-08-08T01:55:20.235Z,1012.9
2022-08-08T01:56:21.614Z,1012.92
2022-08-08T01:57:17.195Z,1012.92
2022-08-08T01:58:15.564Z,1012.92
2022-08-08T01:59:12.835Z,1012.91
2022-08-08T02:00:15.598Z,1012.93
2022-08-08T02:01:18.682Z,1012.92
2022-08-08T02:02:34.090Z,1012.97
2022-08-08T02:03:50.658Z,1012.94
2022-08-08T02:04:15.481Z,1012.94
2022-08-08T02:05:15.182Z,1012.92
2022-08-08T02:06:31.485Z,1012.91
2022-08-08T02:07:16.531Z,1012.88
2022-08-08T02:08:11.215Z,1012.87
2022-08-08T02:09:18.371Z,1012.92
2022-08-08T02:10:29.277Z,1012.9
2022-08-08T02:11:23.329Z,1012.94
2022-08-08T02:12:14.153Z,1012.9
2022-08-08T02:13:52.483Z,1012.95
2022-08-08T02:14:11.158Z,1012.94
2022-08-08T02:15:17.206Z,1012.94
2022-08-08T02:16:21.043Z,1012.97
2022-08-08T02:17:20.841Z,1013
2022-08-08T02:18:14.195Z,1013.02
2022-08-08T02:19:27.118Z,1013
2022-08-08T02:20:59.810Z,1013.01
2022-08-08T02:21:20.199Z,1013.02
2022-08-08T02:22:15.178Z,1013.03
2022-08-08T02:23:20.741Z,1012.99
2022-08-08T02:24:17.178Z,1012.99
2022-08-08T02:25:17.240Z,1013.02
2022-08-08T02:26:18.278Z,1012.97
2022-08-08T02:27:15.175Z,1012.94
2022-08-08T02:28:12.306Z,1012.99
2022-08-08T02:29:20.751Z,1012.97
2022-08-08T02:30:20.886Z,1012.94
2022-08-08T02:31:44.096Z,1012.99
2022-08-08T02:32:22.626Z,1013.01
2022-08-08T02:33:13.174Z,1013.02
2022-08-08T02:34:27.784Z,1012.98
2022-08-08T02:35:15.187Z,1013.02
2022-08-08T02:36:17.184Z,1013
2022-08-08T02:37:51.795Z,1013.02
2022-08-08T02:38:15.182Z,1013
2022-08-08T02:39:40.204Z,1012.98
2022-08-08T02:40:14.173Z,1012.96
2022-08-08T02:41:58.257Z,1012.95
2022-08-08T02:42:14.236Z,1012.93
2022-08-08T02:44:36.375Z,1012.91
2022-08-08T02:44:36.537Z,1012.92
2022-08-08T02:45:21.244Z,1012.9
2022-08-08T02:46:11.152Z,1012.91
2022-08-08T02:47:11.151Z,1012.91
2022-08-08T02:48:15.210Z,1012.9
2022-08-08T02:49:18.611Z,1012.95
2022-08-08T02:50:18.272Z,1012.94
2022-08-08T02:51:21.153Z,1012.94
2022-08-08T02:52:32.457Z,1012.93
2022-08-08T02:53:16.271Z,1012.9
2022-08-08T02:54:15.169Z,1012.91
2022-08-08T02:55:20.816Z,1012.92
2022-08-08T02:56:11.152Z,1012.94
2022-08-08T02:57:18.181Z,1012.94
2022-08-08T02:58:14.878Z,1012.98
2022-08-08T02:59:25.834Z,1012.97
2022-08-08T03:00:27.378Z,1012.97
2022-08-08T03:01:17.212Z,1012.98
2022-08-08T03:02:20.578Z,1012.96
2022-08-08T03:03:12.177Z,1013.01
2022-08-08T03:05:01.838Z,1013
2022-08-08T03:05:14.241Z,1012.99
2022-08-08T03:06:23.984Z,1013.02
2022-08-08T03:07:14.152Z,1013.04
2022-08-08T03:08:11.210Z,1013.05
2022-08-08T03:09:15.156Z,1013.03
2022-08-08T03:10:31.844Z,1013.02
2022-08-08T03:11:25.534Z,1013.02
2022-08-08T03:12:17.154Z,1013.01
2022-08-08T03:13:34.307Z,1013
2022-08-08T03:15:54.926Z,1012.96
2022-08-08T03:15:55.254Z,1012.99
2022-08-08T03:16:12.154Z,1013.04
2022-08-08T03:17:16.139Z,1013.03
2022-08-08T03:18:15.402Z,1013.07
2022-08-08T03:19:17.774Z,1013.09
2022-08-08T03:20:15.210Z,1013.07
2022-08-08T03:21:17.538Z,1013.1
2022-08-08T03:22:37.490Z,1013.15
2022-08-08T03:23:17.612Z,1013.16
2022-08-08T03:24:11.534Z,1013.16
2022-08-08T03:25:20.154Z,1013.17
2022-08-08T03:26:12.154Z,1013.17
2022-08-08T03:27:12.359Z,1013.17
2022-08-08T03:28:14.145Z,1013.22
2022-08-08T03:29:21.080Z,1013.24
2022-08-08T03:30:19.119Z,1013.24
2022-08-08T03:31:22.803Z,1013.24
2022-08-08T03:32:15.164Z,1013.27
2022-08-08T03:33:54.173Z,1013.32
2022-08-08T03:34:15.643Z,1013.32
2022-08-08T03:35:13.175Z,1013.31
2022-08-08T03:36:27.790Z,1013.29
2022-08-08T03:38:00.461Z,1013.32
2022-08-08T03:38:53.266Z,1013.27
2022-08-08T03:39:17.234Z,1013.31
2022-08-08T03:40:30.127Z,1013.29
2022-08-08T03:41:22.978Z,1013.3
2022-08-08T03:42:28.848Z,1013.31
2022-08-08T03:43:19.895Z,1013.33
2022-08-08T03:44:12.158Z,1013.31
2022-08-08T03:46:03.905Z,1013.31
2022-08-08T03:46:12.214Z,1013.38
2022-08-08T03:47:20.869Z,1013.37
2022-08-08T03:48:21.032Z,1013.37
2022-08-08T03:49:31.180Z,1013.37
2022-08-08T03:50:20.469Z,1013.4
2022-08-08T03:51:15.319Z,1013.41
2022-08-08T03:52:15.238Z,1013.42
2022-08-08T03:53:11.177Z,1013.37
2022-08-08T03:54:15.351Z,1013.39
2022-08-08T03:55:55.520Z,1013.39
2022-08-08T03:56:31.045Z,1013.41
2022-08-08T03:58:32.534Z,1013.41
2022-08-08T03:58:32.760Z,1013.45
2022-08-08T03:59:22.508Z,1013.44
2022-08-08T04:00:20.175Z,1013.48
2022-08-08T04:01:23.925Z,1013.5
2022-08-08T04:02:33.611Z,1013.5
2022-08-08T04:03:18.388Z,1013.5
2022-08-08T04:04:23.032Z,1013.51
2022-08-08T04:05:28.595Z,1013.52
2022-08-08T04:06:12.963Z,1013.48
2022-08-08T04:07:18.526Z,1013.47
2022-08-08T04:08:14.990Z,1013.49
2022-08-08T04:09:17.420Z,1013.51
2022-08-08T04:10:15.702Z,1013.52
2022-08-08T04:11:20.737Z,1013.46
2022-08-08T04:12:16.330Z,1013.49
2022-08-08T04:13:20.736Z,1013.5
2022-08-08T04:14:33.194Z,1013.52
2022-08-08T04:15:12.825Z,1013.5
2022-08-08T04:16:12.083Z,1013.54
2022-08-08T04:17:23.033Z,1013.54
2022-08-08T04:18:17.291Z,1013.55
2022-08-08T04:19:20.882Z,1013.51
2022-08-08T04:20:11.762Z,1013.55
2022-08-08T04:21:12.927Z,1013.55
2022-08-08T04:22:16.551Z,1013.52
2022-08-08T04:23:15.387Z,1013.52
2022-08-08T04:24:23.352Z,1013.57
2022-08-08T04:25:19.206Z,1013.56
2022-08-08T04:26:14.224Z,1013.57
2022-08-08T04:27:19.518Z,1013.62
2022-08-08T04:28:35.686Z,1013.61
2022-08-08T04:29:15.045Z,1013.62
2022-08-08T04:30:20.425Z,1013.57
2022-08-08T04:31:30.986Z,1013.61
2022-08-08T04:32:30.464Z,1013.58
2022-08-08T04:33:16.456Z,1013.59
2022-08-08T04:34:12.151Z,1013.57
2022-08-08T04:35:15.861Z,1013.59
2022-08-08T04:36:12.175Z,1013.6
2022-08-08T04:37:12.146Z,1013.62
2022-08-08T04:38:21.571Z,1013.62
2022-08-08T04:39:48.439Z,1013.62
2022-08-08T04:40:14.210Z,1013.63
2022-08-08T04:41:21.264Z,1013.67
2022-08-08T04:42:18.782Z,1013.65
2022-08-08T04:43:11.146Z,1013.67
2022-08-08T04:44:11.146Z,1013.7
2022-08-08T04:45:14.145Z,1013.67
2022-08-08T04:46:11.148Z,1013.69
2022-08-08T04:47:14.157Z,1013.71
2022-08-08T04:48:14.998Z,1013.72
2022-08-08T04:49:14.242Z,1013.71
2022-08-08T04:50:23.775Z,1013.72
2022-08-08T04:51:17.356Z,1013.75
2022-08-08T04:52:15.258Z,1013.78
2022-08-08T04:53:52.931Z,1013.78
2022-08-08T04:54:37.301Z,1013.81
2022-08-08T04:55:11.154Z,1013.82
2022-08-08T04:56:11.463Z,1013.79
2022-08-08T04:57:11.535Z,1013.81
2022-08-08T04:58:17.617Z,1013.83
2022-08-08T04:59:11.421Z,1013.82
2022-08-08T05:00:20.167Z,1013.82
2022-08-08T05:01:15.274Z,1013.85
2022-08-08T05:02:14.526Z,1013.84
2022-08-08T05:03:18.568Z,1013.83
2022-08-08T05:04:15.172Z,1013.87
2022-08-08T05:05:45.019Z,1013.84
2022-08-08T05:06:26.063Z,1013.87
2022-08-08T05:07:15.535Z,1013.9
2022-08-08T05:08:14.270Z,1013.89
2022-08-08T05:09:11.176Z,1013.89
2022-08-08T05:10:15.471Z,1013.88
2022-08-08T05:11:12.256Z,1013.85
2022-08-08T05:12:20.793Z,1013.87
2022-08-08T05:13:18.213Z,1013.86
2022-08-08T05:14:15.574Z,1013.87
2022-08-08T05:15:16.114Z,1013.84
2022-08-08T05:16:47.634Z,1013.88
2022-08-08T05:17:20.365Z,1013.87
2022-08-08T05:18:14.396Z,1013.86
2022-08-08T05:20:05.028Z,1013.9
2022-08-08T05:20:17.527Z,1013.89
2022-08-08T05:21:20.665Z,1013.9
2022-08-08T05:22:12.157Z,1013.86
2022-08-08T05:23:17.611Z,1013.89
2022-08-08T05:24:17.615Z,1013.91
2022-08-08T05:25:11.157Z,1013.88
2022-08-08T05:26:15.179Z,1013.88
2022-08-08T05:27:11.149Z,1013.85
2022-08-08T05:28:11.179Z,1013.86
2022-08-08T05:29:14.426Z,1013.83
2022-08-08T05:30:14.177Z,1013.8
2022-08-08T05:32:02.828Z,1013.81
2022-08-08T05:32:14.169Z,1013.82
2022-08-08T05:33:11.181Z,1013.82
2022-08-08T05:34:15.220Z,1013.83
2022-08-08T05:35:15.173Z,1013.82
2022-08-08T05:36:23.157Z,1013.81
2022-08-08T05:37:20.565Z,1013.81
2022-08-08T05:38:29.375Z,1013.78
2022-08-08T05:39:15.204Z,1013.78
2022-08-08T05:40:18.177Z,1013.84
2022-08-08T05:41:14.151Z,1013.82
2022-08-08T05:42:11.155Z,1013.85
2022-08-08T05:43:40.326Z,1013.8
2022-08-08T05:44:12.181Z,1013.83
2022-08-08T05:45:25.800Z,1013.81
2022-08-08T05:46:12.176Z,1013.83
2022-08-08T05:47:20.863Z,1013.79
2022-08-08T05:48:15.201Z,1013.79
2022-08-08T05:49:17.175Z,1013.79
2022-08-08T05:50:11.175Z,1013.83
2022-08-08T05:51:18.178Z,1013.82
2022-08-08T05:52:16.260Z,1013.82
2022-08-08T05:53:22.866Z,1013.82
2022-08-08T05:54:26.641Z,1013.81
2022-08-08T05:55:15.255Z,1013.81
2022-08-08T05:56:18.336Z,1013.86
2022-08-08T05:57:12.179Z,1013.88
2022-08-08T05:58:21.711Z,1013.84
2022-08-08T05:59:15.212Z,1013.86
2022-08-08T06:00:23.342Z,1013.87
2022-08-08T06:01:12.148Z,1013.85
2022-08-08T06:02:12.161Z,1013.87
2022-08-08T06:03:25.059Z,1013.83
2022-08-08T06:04:22.576Z,1013.82
2022-08-08T06:05:33.357Z,1013.79
2022-08-08T06:06:11.138Z,1013.8
2022-08-08T06:07:12.318Z,1013.79
2022-08-08T06:08:20.572Z,1013.78
2022-08-08T06:09:42.050Z,1013.81
2022-08-08T06:10:24.485Z,1013.78
2022-08-08T06:11:16.536Z,1013.77
2022-08-08T06:12:18.546Z,1013.75
2022-08-08T06:13:14.194Z,1013.72
2022-08-08T06:14:17.866Z,1013.76
2022-08-08T06:15:17.334Z,1013.76
2022-08-08T06:16:11.379Z,1013.72
2022-08-08T06:17:19.325Z,1013.74
2022-08-08T06:18:20.486Z,1013.75
2022-08-08T06:19:17.308Z,1013.75
2022-08-08T06:20:16.598Z,1013.76
2022-08-08T06:21:28.734Z,1013.72
2022-08-08T06:22:33.549Z,1013.67
2022-08-08T06:23:15.808Z,1013.73
2022-08-08T06:24:23.377Z,1013.7
2022-08-08T06:25:14.649Z,1013.71
2022-08-08T06:26:35.441Z,1013.74
2022-08-08T06:27:12.526Z,1013.65
2022-08-08T06:28:12.811Z,1013.71
2022-08-08T06:29:26.951Z,1013.73
2022-08-08T06:30:26.511Z,1013.7
2022-08-08T06:31:16.375Z,1013.74
2022-08-08T06:32:17.394Z,1013.76
2022-08-08T06:33:15.706Z,1013.78
2022-08-08T06:34:26.826Z,1013.81
2022-08-08T06:35:35.542Z,1013.81
2022-08-08T06:36:16.709Z,1013.78
2022-08-08T06:37:24.653Z,1013.82
2022-08-08T06:38:15.755Z,1013.84
2022-08-08T06:39:11.473Z,1013.79
2022-08-08T06:40:16.947Z,1013.77
2022-08-08T06:41:16.665Z,1013.79
2022-08-08T06:42:14.589Z,1013.8
2022-08-08T06:43:12.178Z,1013.83
2022-08-08T06:44:25.018Z,1013.78
2022-08-08T06:45:14.429Z,1013.81
2022-08-08T06:46:18.489Z,1013.84
2022-08-08T06:47:21.899Z,1013.88
2022-08-08T06:48:18.234Z,1013.87
2022-08-08T06:49:19.036Z,1013.84
2022-08-08T06:50:31.649Z,1013.86
2022-08-08T06:51:12.267Z,1013.83
2022-08-08T06:52:11.201Z,1013.81
2022-08-08T06:53:20.367Z,1013.81
2022-08-08T06:54:11.168Z,1013.8
2022-08-08T06:55:12.236Z,1013.82
2022-08-08T06:56:11.155Z,1013.85
2022-08-08T06:57:15.423Z,1013.81
2022-08-08T06:58:12.379Z,1013.79
2022-08-08T06:59:15.438Z,1013.83
2022-08-08T07:00:15.384Z,1013.88
2022-08-08T07:01:52.689Z,1013.85
2022-08-08T07:02:27.783Z,1013.85
2022-08-08T07:03:19.680Z,1013.88
2022-08-08T07:04:36.074Z,1013.89
2022-08-08T07:05:20.148Z,1013.9
2022-08-08T07:06:11.701Z,1013.9
2022-08-08T07:07:13.578Z,1013.85
2022-08-08T07:08:12.441Z,1013.93
2022-08-08T07:09:21.008Z,1013.87
2022-08-08T07:10:14.412Z,1013.89
2022-08-08T07:11:22.334Z,1013.85
2022-08-08T07:12:18.477Z,1013.86
2022-08-08T07:13:11.623Z,1013.85
2022-08-08T07:14:11.533Z,1013.86
2022-08-08T07:15:23.504Z,1013.88
2022-08-08T07:16:13.563Z,1013.9
2022-08-08T07:17:18.860Z,1013.93
2022-08-08T07:18:35.244Z,1013.93
2022-08-08T07:19:11.526Z,1013.93
2022-08-08T07:20:13.534Z,1013.88
2022-08-08T07:21:21.742Z,1013.94
2022-08-08T07:22:20.745Z,1013.96
2022-08-08T07:23:11.147Z,1013.97
2022-08-08T07:24:15.844Z,1013.94
2022-08-08T07:25:19.494Z,1013.95
2022-08-08T07:26:12.032Z,1013.97
2022-08-08T07:27:16.529Z,1013.96
2022-08-08T07:28:18.868Z,1013.99
2022-08-08T07:29:20.355Z,1014.09
2022-08-08T07:30:25.245Z,1014.08
2022-08-08T07:31:14.184Z,1014.06
2022-08-08T07:32:15.576Z,1014.06
2022-08-08T07:33:18.962Z,1014.03
2022-08-08T07:34:20.183Z,1014.04
2022-08-08T07:35:11.405Z,1014.07
2022-08-08T07:36:16.707Z,1014.09
2022-08-08T07:37:15.110Z,1014.06
2022-08-08T07:38:24.871Z,1013.97
2022-08-08T07:39:15.672Z,1014.02
2022-08-08T07:40:21.188Z,1014.03
2022-08-08T07:41:23.815Z,1014.08
2022-08-08T07:42:18.801Z,1014.12
2022-08-08T07:43:12.189Z,1014.11
2022-08-08T07:44:37.097Z,1014.13
2022-08-08T07:45:14.575Z,1014.16
2022-08-08T07:46:24.238Z,1014.11
2022-08-08T07:47:11.246Z,1014.16
2022-08-08T07:48:15.936Z,1014.08
2022-08-08T07:49:11.171Z,1014.09
2022-08-08T07:50:11.149Z,1014.06
2022-08-08T07:51:23.616Z,1014.09
2022-08-08T07:52:23.319Z,1014.08
2022-08-08T07:53:23.983Z,1014.08
2022-08-08T07:54:15.917Z,1014.08
2022-08-08T07:55:11.150Z,1014.1
2022-08-08T07:56:11.151Z,1014.11
2022-08-08T07:57:19.749Z,1014.12
2022-08-08T07:58:13.316Z,1014.05
2022-08-08T07:59:19.301Z,1014.05
2022-08-08T08:00:18.158Z,1014.07
2022-08-08T08:01:15.156Z,1014.08
2022-08-08T08:02:32.641Z,1014.11
2022-08-08T08:03:20.810Z,1014.11
2022-08-08T08:04:18.313Z,1014.14
2022-08-08T08:05:17.165Z,1014.17
2022-08-08T08:06:17.283Z,1014.14
2022-08-08T08:07:14.598Z,1014.13
2022-08-08T08:08:11.376Z,1014.16
2022-08-08T08:09:11.299Z,1014.12
2022-08-08T08:10:15.462Z,1014.15
2022-08-08T08:11:18.529Z,1014.21
2022-08-08T08:12:31.309Z,1014.11
2022-08-08T08:13:18.472Z,1014.14
2022-08-08T08:14:15.633Z,1014.15
2022-08-08T08:15:15.710Z,1014.12
2022-08-08T08:16:12.399Z,1014.13
2022-08-08T08:17:12.440Z,1014.13
2022-08-08T08:18:14.753Z,1014.13
2022-08-08T08:19:12.686Z,1014.14
2022-08-08T08:20:17.375Z,1014.11
2022-08-08T08:21:20.721Z,1014.11
2022-08-08T08:22:25.648Z,1014.13
2022-08-08T08:23:12.554Z,1014.09
2022-08-08T08:24:15.712Z,1014.13
2022-08-08T08:25:11.145Z,1014.13
2022-08-08T08:26:12.149Z,1014.12
2022-08-08T08:27:12.182Z,1014.11
2022-08-08T08:28:16.871Z,1014.09
2022-08-08T08:29:20.504Z,1014.12
2022-08-08T08:30:11.206Z,1014.12
2022-08-08T08:31:12.299Z,1014.09
2022-08-08T08:32:24.103Z,1014.1
2022-08-08T08:33:14.180Z,1014.14
2022-08-08T08:34:12.159Z,1014.1
2022-08-08T08:35:15.234Z,1014.08
2022-08-08T08:36:21.401Z,1014.11
2022-08-08T08:37:11.178Z,1014.16
2022-08-08T08:38:20.420Z,1014.13
2022-08-08T08:39:23.115Z,1014.13
2022-08-08T08:40:15.224Z,1014.11
2022-08-08T08:41:19.928Z,1014.15
2022-08-08T08:42:19.463Z,1014.13
2022-08-08T08:43:18.915Z,1014.15
2022-08-08T08:44:16.302Z,1014.16
2022-08-08T08:45:22.150Z,1014.16
2022-08-08T08:46:19.028Z,1014.17
2022-08-08T08:47:15.169Z,1014.18
2022-08-08T08:48:19.202Z,1014.13
2022-08-08T08:49:11.217Z,1014.14
2022-08-08T08:50:31.611Z,1014.17
2022-08-08T08:51:14.340Z,1014.15
2022-08-08T08:52:11.167Z,1014.15
2022-08-08T08:53:27.144Z,1014.14
2022-08-08T08:54:11.151Z,1014.16
2022-08-08T08:55:17.170Z,1014.14
2022-08-08T08:56:11.140Z,1014.13
2022-08-08T08:57:18.175Z,1014.13
2022-08-08T08:58:13.184Z,1014.12
2022-08-08T08:59:17.270Z,1014.12
2022-08-08T09:00:20.348Z,1014.17
2022-08-08T09:01:17.238Z,1014.17
2022-08-08T09:02:15.232Z,1014.17
2022-08-08T09:03:17.207Z,1014.14
2022-08-08T09:04:30.014Z,1014.11
2022-08-08T09:05:28.781Z,1014.14
2022-08-08T09:06:27.021Z,1014.1
2022-08-08T09:07:15.181Z,1014.08
2022-08-08T09:08:20.677Z,1014.1
2022-08-08T09:09:26.806Z,1014.1
2022-08-08T09:10:18.230Z,1014.09
2022-08-08T09:11:11.214Z,1014.07
2022-08-08T09:12:12.158Z,1014.11
2022-08-08T09:13:11.180Z,1014.07
2022-08-08T09:14:14.144Z,1014.1
2022-08-08T09:15:12.177Z,1014.08
2022-08-08T09:16:14.155Z,1014.1
2022-08-08T09:17:31.820Z,1014.11
2022-08-08T09:18:14.177Z,1014.16
2022-08-08T09:19:13.146Z,1014.16
2022-08-08T09:21:54.667Z,1014.12
2022-08-08T09:21:55.333Z,1014.08
2022-08-08T09:22:12.365Z,1014.1
2022-08-08T09:23:25.564Z,1014.12
2022-08-08T09:24:19.641Z,1014.08
2022-08-08T09:25:15.767Z,1014.13
2022-08-08T09:26:14.174Z,1014.09
2022-08-08T09:27:20.201Z,1014.1
2022-08-08T09:28:24.015Z,1014.1
2022-08-08T09:29:22.110Z,1014.1
2022-08-08T09:30:20.311Z,1014.12
2022-08-08T09:31:14.442Z,1014.12
2022-08-08T09:32:20.395Z,1014.09
2022-08-08T09:33:55.042Z,1014.11
2022-08-08T09:34:31.930Z,1014.12
2022-08-08T09:35:15.961Z,1014.04
2022-08-08T09:36:12.729Z,1014.01
2022-08-08T09:37:29.005Z,1014.06
2022-08-08T09:38:18.589Z,1013.99
2022-08-08T09:39:19.228Z,1014
2022-08-08T09:40:14.499Z,1014.01
2022-08-08T09:41:12.711Z,1014.01
2022-08-08T09:42:20.357Z,1014
2022-08-08T09:43:23.848Z,1013.98
2022-08-08T09:44:24.574Z,1013.99
2022-08-08T09:45:20.773Z,1013.99
2022-08-08T09:46:25.917Z,1014.01
2022-08-08T09:47:35.456Z,1014.05
2022-08-08T09:48:23.588Z,1014.03
2022-08-08T09:49:42.008Z,1014
2022-08-08T09:50:15.760Z,1014.01
2022-08-08T09:51:12.429Z,1014.04
2022-08-08T09:52:54.289Z,1014.04
2022-08-08T09:53:24.514Z,1014.07
2022-08-08T09:54:19.721Z,1014.06
2022-08-08T09:55:17.352Z,1014.02
2022-08-08T09:56:21.875Z,1014.03
2022-08-08T09:57:18.985Z,1013.99
2022-08-08T09:58:20.451Z,1013.98
2022-08-08T09:59:43.098Z,1014.03
2022-08-08T10:00:48.717Z,1013.99
2022-08-08T10:01:58.096Z,1014.01
2022-08-08T10:02:15.773Z,1014.01
2022-08-08T10:03:11.193Z,1014.02
2022-08-08T10:04:11.183Z,1014.02
2022-08-08T10:05:23.201Z,1013.97
2022-08-08T10:06:15.371Z,1013.95
2022-08-08T10:07:17.317Z,1014.01
2022-08-08T10:08:16.451Z,1014
2022-08-08T10:09:14.178Z,1013.99
2022-08-08T10:10:11.141Z,1013.94
2022-08-08T10:12:22.981Z,1014.02
2022-08-08T10:12:23.363Z,1013.98
2022-08-08T10:13:17.478Z,1013.96
2022-08-08T10:14:27.832Z,1013.99
2022-08-08T10:15:20.370Z,1013.97
2022-08-08T10:16:12.175Z,1013.95
2022-08-08T10:17:38.554Z,1013.95
2022-08-08T10:18:22.394Z,1013.95
2022-08-08T10:19:12.276Z,1013.95
2022-08-08T10:20:16.969Z,1013.95
2022-08-08T10:21:23.327Z,1013.91
2022-08-08T10:22:12.150Z,1013.95
2022-08-08T10:23:20.899Z,1013.96
2022-08-08T10:24:28.442Z,1013.95
2022-08-08T10:25:17.187Z,1013.98
2022-08-08T10:26:25.680Z,1013.91
2022-08-08T10:27:15.248Z,1013.91
2022-08-08T10:28:17.178Z,1013.89
2022-08-08T10:29:20.738Z,1013.92
2022-08-08T10:30:57.204Z,1013.95
2022-08-08T10:31:12.187Z,1013.92
2022-08-08T10:32:14.185Z,1013.91
2022-08-08T10:33:18.013Z,1013.9
2022-08-08T10:34:23.213Z,1013.89
2022-08-08T10:36:06.984Z,1013.85
2022-08-08T10:36:22.786Z,1013.9
2022-08-08T10:37:11.936Z,1013.84
2022-08-08T10:38:15.266Z,1013.88
2022-08-08T10:39:17.447Z,1013.91
2022-08-08T10:40:16.418Z,1013.91
2022-08-08T10:41:11.001Z,1013.87
2022-08-08T10:42:18.279Z,1013.86
2022-08-08T10:43:12.711Z,1013.85
2022-08-08T10:44:11.831Z,1013.83
2022-08-08T10:45:16.597Z,1013.88
2022-08-08T10:46:26.023Z,1013.86
2022-08-08T10:47:14.980Z,1013.81
2022-08-08T10:48:11.118Z,1013.8
2022-08-08T10:49:27.006Z,1013.82
2022-08-08T10:50:15.329Z,1013.8
2022-08-08T10:51:11.243Z,1013.77
2022-08-08T10:52:14.292Z,1013.77
2022-08-08T10:53:14.751Z,1013.7
2022-08-08T10:54:15.082Z,1013.68
2022-08-08T10:55:15.511Z,1013.71
2022-08-08T10:56:26.853Z,1013.72
2022-08-08T10:57:11.157Z,1013.7
2022-08-08T10:58:12.185Z,1013.69
2022-08-08T10:59:14.926Z,1013.78
2022-08-08T11:00:14.458Z,1013.72
2022-08-08T11:01:15.721Z,1013.76
2022-08-08T11:02:11.282Z,1013.79
2022-08-08T11:03:15.772Z,1013.75
2022-08-08T11:04:14.418Z,1013.76
2022-08-08T11:05:17.704Z,1013.72
2022-08-08T11:06:14.518Z,1013.75
2022-08-08T11:07:39.028Z,1013.73
2022-08-08T11:08:32.093Z,1013.72
2022-08-08T11:09:20.262Z,1013.7
2022-08-08T11:10:11.191Z,1013.73
2022-08-08T11:11:31.894Z,1013.74
2022-08-08T11:12:15.512Z,1013.74
2022-08-08T11:13:28.271Z,1013.72
2022-08-08T11:14:16.584Z,1013.78
2022-08-08T11:15:11.399Z,1013.74
2022-08-08T11:16:32.035Z,1013.73
2022-08-08T11:17:16.546Z,1013.64
2022-08-08T11:18:12.208Z,1013.68
2022-08-08T11:19:18.798Z,1013.66
2022-08-08T11:20:17.985Z,1013.64
2022-08-08T11:21:19.824Z,1013.62
2022-08-08T11:22:12.383Z,1013.61
2022-08-08T11:23:11.830Z,1013.6
2022-08-08T11:24:12.452Z,1013.59
2022-08-08T11:25:16.807Z,1013.63
2022-08-08T11:26:11.846Z,1013.64
2022-08-08T11:27:20.059Z,1013.59
2022-08-08T11:28:12.971Z,1013.63
2022-08-08T11:29:12.467Z,1013.61
2022-08-08T11:30:20.694Z,1013.62
2022-08-08T11:31:12.395Z,1013.62
2022-08-08T11:32:14.534Z,1013.6
2022-08-08T11:33:16.118Z,1013.57
2022-08-08T11:34:22.734Z,1013.55
2022-08-08T11:35:24.761Z,1013.52
2022-08-08T11:36:14.543Z,1013.51
2022-08-08T11:37:16.930Z,1013.5
2022-08-08T11:38:37.496Z,1013.5
2022-08-08T11:39:15.394Z,1013.53
2022-08-08T11:40:11.217Z,1013.53
2022-08-08T11:41:11.156Z,1013.49
2022-08-08T11:42:12.148Z,1013.49
2022-08-08T11:43:14.466Z,1013.47
2022-08-08T11:44:11.176Z,1013.48
2022-08-08T11:45:11.142Z,1013.45
2022-08-08T11:46:18.259Z,1013.42
2022-08-08T11:47:18.326Z,1013.4
2022-08-08T11:48:18.155Z,1013.42
2022-08-08T11:49:17.114Z,1013.43
2022-08-08T11:50:15.194Z,1013.43
2022-08-08T11:51:31.135Z,1013.45
2022-08-08T11:52:26.893Z,1013.48
2022-08-08T11:53:14.177Z,1013.4
2022-08-08T11:54:27.524Z,1013.39
2022-08-08T11:55:17.198Z,1013.4
2022-08-08T11:56:11.175Z,1013.42
2022-08-08T11:57:18.259Z,1013.49
2022-08-08T11:58:16.270Z,1013.46
2022-08-08T11:59:12.171Z,1013.42
2022-08-08T12:00:14.237Z,1013.49
2022-08-08T12:01:18.167Z,1013.49
2022-08-08T12:02:31.558Z,1013.44
2022-08-08T12:03:16.296Z,1013.52
2022-08-08T12:04:11.150Z,1013.46
2022-08-08T12:05:16.190Z,1013.44
2022-08-08T12:06:15.178Z,1013.48
2022-08-08T12:07:18.333Z,1013.47